createdAt,value
2023-02-23T00:01:55.160Z,36.91
2023-02-23T00:04:24.132Z,36.90
2023-02-23T00:06:53.627Z,36.89
2023-02-23T00:09:24.385Z,36.95
2023-02-23T00:11:56.244Z,36.84
2023-02-23T00:14:27.448Z,36.92
2023-02-23T00:16:55.681Z,36.97
2023-02-23T00:19:24.971Z,36.95
2023-02-23T00:21:54.348Z,37.00
2023-02-23T00:24:23.354Z,36.96
2023-02-23T00:26:53.074Z,36.89
2023-02-23T00:29:23.873Z,36.98
2023-02-23T00:31:53.233Z,36.93
2023-02-23T00:34:23.844Z,36.91
2023-02-23T00:36:54.441Z,36.78
2023-02-23T00:39:26.575Z,36.89
2023-02-23T00:41:57.219Z,36.86
2023-02-23T00:44:26.332Z,36.90
2023-02-23T00:46:54.366Z,37.00
2023-02-23T00:49:23.256Z,36.91
2023-02-23T00:51:52.356Z,37.00
2023-02-23T00:54:22.862Z,37.04
2023-02-23T00:56:51.795Z,36.88
2023-02-23T00:59:21.831Z,37.10
2023-02-23T01:01:50.395Z,37.07
2023-02-23T01:04:18.371Z,37.13
2023-02-23T01:06:46.557Z,37.03
2023-02-23T01:09:22.063Z,37.08
2023-02-23T01:11:50.195Z,37.04
2023-02-23T01:14:22.147Z,37.06
2023-02-23T01:16:50.362Z,37.10
2023-02-23T01:19:20.258Z,37.02
2023-02-23T01:21:48.401Z,36.98
2023-02-23T01:24:16.447Z,37.12
2023-02-23T01:26:46.508Z,36.94
2023-02-23T01:29:16.179Z,37.07
2023-02-23T01:31:48.254Z,37.06
2023-02-23T01:34:16.636Z,37.12
2023-02-23T01:36:45.906Z,36.91
2023-02-23T01:39:15.744Z,36.98
2023-02-23T01:41:43.907Z,36.96
2023-02-23T01:44:45.128Z,36.95
2023-02-23T01:47:17.279Z,37.00
2023-02-23T01:49:45.601Z,37.04
2023-02-23T01:52:18.409Z,37.18
2023-02-23T01:54:51.632Z,36.94
2023-02-23T01:57:24.994Z,37.09
2023-02-23T01:59:54.071Z,36.97
2023-02-23T02:02:33.964Z,37.07
2023-02-23T02:05:05.326Z,37.18
2023-02-23T02:07:36.291Z,37.02
2023-02-23T02:10:34.242Z,37.06
2023-02-23T02:13:05.937Z,37.16
2023-02-23T02:15:38.785Z,37.07
2023-02-23T02:18:18.685Z,37.09
2023-02-23T02:21:25.191Z,37.13
2023-02-23T02:24:43.962Z,37.01
2023-02-23T02:27:24.021Z,37.04
2023-02-23T02:30:27.613Z,37.05
2023-02-23T02:33:38.027Z,37.09
2023-02-23T02:36:26.403Z,37.09
2023-02-23T02:39:10.460Z,37.32
2023-02-23T02:41:51.308Z,37.25
2023-02-23T02:44:24.387Z,37.17
2023-02-23T02:46:59.273Z,37.07
2023-02-23T02:49:33.773Z,37.14
2023-02-23T02:52:06.758Z,37.15
2023-02-23T02:54:40.682Z,37.09
2023-02-23T02:57:10.234Z,37.25
2023-02-23T03:00:02.363Z,37.40
2023-02-23T03:02:50.609Z,37.15
2023-02-23T03:05:37.961Z,37.19
2023-02-23T03:08:29.883Z,37.28
2023-02-23T03:11:22.132Z,37.13
2023-02-23T03:14:18.654Z,37.18
2023-02-23T03:17:15.763Z,37.14
2023-02-23T03:20:10.323Z,37.26
2023-02-23T03:23:03.378Z,37.20
2023-02-23T03:25:53.948Z,37.18
2023-02-23T03:28:47.397Z,37.33
2023-02-23T03:31:40.202Z,37.26
2023-02-23T03:34:30.910Z,37.23
2023-02-23T03:37:24.956Z,37.14
2023-02-23T03:40:15.759Z,37.32
2023-02-23T03:43:03.705Z,37.31
2023-02-23T03:45:51.283Z,37.16
2023-02-23T03:48:40.160Z,37.27
2023-02-23T03:51:27.505Z,37.31
2023-02-23T03:54:17.684Z,37.19
2023-02-23T03:57:07.004Z,37.22
2023-02-23T03:59:59.111Z,37.29
2023-02-23T04:02:48.106Z,37.23
2023-02-23T04:05:37.128Z,37.21
2023-02-23T04:08:25.929Z,37.35
2023-02-23T04:11:19.160Z,37.28
2023-02-23T04:13:52.076Z,37.39
2023-02-23T04:16:19.847Z,37.27
2023-02-23T04:18:49.403Z,37.33
2023-02-23T04:21:17.772Z,37.29
2023-02-23T04:23:46.007Z,37.36
2023-02-23T04:26:14.121Z,37.28
2023-02-23T04:28:42.167Z,37.42
2023-02-23T04:31:10.212Z,37.34
2023-02-23T04:33:38.247Z,37.32
2023-02-23T04:36:08.570Z,37.44
2023-02-23T04:38:36.763Z,37.33
2023-02-23T04:41:04.857Z,37.34
2023-02-23T04:43:32.890Z,37.48
2023-02-23T04:46:01.153Z,37.43
2023-02-23T04:48:29.237Z,37.46
2023-02-23T04:50:57.232Z,37.30
2023-02-23T04:53:27.311Z,37.42
2023-02-23T04:55:55.348Z,37.49
2023-02-23T04:58:23.413Z,37.47
2023-02-23T05:00:51.469Z,37.53
2023-02-23T05:03:19.481Z,37.55
2023-02-23T05:05:47.620Z,37.51
2023-02-23T05:08:15.797Z,37.42
2023-02-23T05:10:47.061Z,37.47
2023-02-23T05:13:16.385Z,37.42
2023-02-23T05:15:44.621Z,37.43
2023-02-23T05:18:12.712Z,37.38
2023-02-23T05:20:44.880Z,37.60
2023-02-23T05:23:13.109Z,37.48
2023-02-23T05:25:41.526Z,37.54
2023-02-23T05:28:10.914Z,37.41
2023-02-23T05:30:39.312Z,37.49
2023-02-23T05:33:07.464Z,37.38
2023-02-23T05:35:35.741Z,37.56
2023-02-23T05:38:03.821Z,37.57
2023-02-23T05:40:32.354Z,37.59
2023-02-23T05:43:00.885Z,37.54
2023-02-23T05:45:30.323Z,37.55
2023-02-23T05:47:58.431Z,37.58
2023-02-23T05:50:27.246Z,37.58
2023-02-23T05:52:55.745Z,37.63
2023-02-23T05:55:23.792Z,37.50
2023-02-23T05:57:51.967Z,37.65
2023-02-23T06:00:20.843Z,37.69
2023-02-23T06:02:52.500Z,37.57
2023-02-23T06:05:20.602Z,37.56
2023-02-23T06:07:48.867Z,37.60
2023-02-23T06:10:17.323Z,37.53
2023-02-23T06:12:46.749Z,37.59
2023-02-23T06:15:14.816Z,37.53
2023-02-23T06:17:43.178Z,37.72
2023-02-23T06:20:13.814Z,37.64
2023-02-23T06:22:42.366Z,37.68
2023-02-23T06:25:12.962Z,37.54
2023-02-23T06:27:42.144Z,37.60
2023-02-23T06:30:11.494Z,37.59
2023-02-23T06:32:39.714Z,37.59
2023-02-23T06:35:09.324Z,37.56
2023-02-23T06:37:38.784Z,37.67
2023-02-23T06:40:08.236Z,37.71
2023-02-23T06:42:36.842Z,37.61
2023-02-23T06:45:05.264Z,37.83
2023-02-23T06:47:33.693Z,37.63
2023-02-23T06:50:02.126Z,37.69
2023-02-23T06:52:30.292Z,37.80
2023-02-23T06:54:59.708Z,37.65
2023-02-23T06:57:27.735Z,37.75
2023-02-23T06:59:55.758Z,37.77
2023-02-23T07:02:24.230Z,37.70
2023-02-23T07:04:52.262Z,37.71
2023-02-23T07:07:20.370Z,37.68
2023-02-23T07:09:48.392Z,37.69
2023-02-23T07:12:17.916Z,37.75
2023-02-23T07:14:45.984Z,37.81
2023-02-23T07:17:14.553Z,37.88
2023-02-23T07:19:42.593Z,37.90
2023-02-23T07:22:10.648Z,37.90
2023-02-23T07:24:38.721Z,37.93
2023-02-23T07:27:06.942Z,37.72
2023-02-23T07:29:36.469Z,37.80
2023-02-23T07:32:04.906Z,37.94
2023-02-23T07:34:32.981Z,37.88
2023-02-23T07:37:01.023Z,37.92
2023-02-23T07:39:29.170Z,37.81
2023-02-23T07:41:57.174Z,38.04
2023-02-23T07:44:25.327Z,38.01
2023-02-23T07:46:54.738Z,37.94
2023-02-23T07:49:22.754Z,38.00
2023-02-23T07:51:50.854Z,37.96
2023-02-23T07:54:19.015Z,37.91
2023-02-23T07:56:47.072Z,37.87
2023-02-23T07:59:15.448Z,38.03
2023-02-23T08:01:43.543Z,37.88
2023-02-23T08:04:13.098Z,37.90
2023-02-23T08:06:41.132Z,37.92
2023-02-23T08:09:09.167Z,38.01
2023-02-23T08:11:37.344Z,37.90
2023-02-23T08:14:05.502Z,38.02
2023-02-23T08:16:34.641Z,38.02
2023-02-23T08:19:03.318Z,37.98
2023-02-23T08:21:32.921Z,37.87
2023-02-23T08:24:00.990Z,37.96
2023-02-23T08:26:29.196Z,38.15
2023-02-23T08:28:57.336Z,38.03
2023-02-23T08:31:27.640Z,38.03
2023-02-23T08:33:55.896Z,38.04
2023-02-23T08:36:24.085Z,37.86
2023-02-23T08:38:54.232Z,38.11
2023-02-23T08:41:22.896Z,38.09
2023-02-23T08:43:50.942Z,38.10
2023-02-23T08:46:20.657Z,37.95
2023-02-23T08:48:48.824Z,38.14
2023-02-23T08:51:18.578Z,38.16
2023-02-23T08:53:46.914Z,38.17
2023-02-23T08:56:16.732Z,38.04
2023-02-23T08:58:45.020Z,38.04
2023-02-23T09:01:18.442Z,38.26
2023-02-23T09:03:47.168Z,38.08
2023-02-23T09:06:18.096Z,38.22
2023-02-23T09:08:46.215Z,38.15
2023-02-23T09:11:14.388Z,38.07
2023-02-23T09:13:44.699Z,38.12
2023-02-23T09:16:12.949Z,38.13
2023-02-23T09:18:41.549Z,38.12
2023-02-23T09:21:18.874Z,37.98
2023-02-23T09:23:48.348Z,38.13
2023-02-23T09:26:18.941Z,38.18
2023-02-23T09:28:48.849Z,38.16
2023-02-23T09:31:19.536Z,38.24
2023-02-23T09:33:48.094Z,38.24
2023-02-23T09:36:18.243Z,38.28
2023-02-23T09:38:47.632Z,38.19
2023-02-23T09:41:43.667Z,38.34
2023-02-23T09:44:22.255Z,38.25
2023-02-23T09:47:05.853Z,38.36
2023-02-23T09:49:38.454Z,38.23
2023-02-23T09:52:12.321Z,38.30
2023-02-23T09:54:40.560Z,38.30
2023-02-23T09:57:16.496Z,38.33
2023-02-23T09:59:46.403Z,38.43
2023-02-23T10:02:31.328Z,38.30
2023-02-23T10:05:03.719Z,38.38
2023-02-23T10:07:43.627Z,38.25
2023-02-23T10:10:28.018Z,38.54
2023-02-23T10:13:04.366Z,38.34
2023-02-23T10:15:42.107Z,38.48
2023-02-23T10:18:22.173Z,38.45
2023-02-23T10:20:57.460Z,38.33
2023-02-23T10:23:36.654Z,38.33
2023-02-23T10:26:08.771Z,38.40
2023-02-23T10:28:39.190Z,38.34
2023-02-23T10:31:25.406Z,38.60
2023-02-23T10:33:56.492Z,38.40
2023-02-23T10:36:38.144Z,38.60
2023-02-23T10:39:08.500Z,38.36
2023-02-23T10:41:38.312Z,38.50
2023-02-23T10:44:16.827Z,38.45
2023-02-23T10:46:50.592Z,38.44
2023-02-23T10:49:24.522Z,38.41
2023-02-23T10:51:58.335Z,38.54
2023-02-23T10:54:47.806Z,38.71
2023-02-23T10:57:26.693Z,38.68
2023-02-23T11:00:27.615Z,38.72
2023-02-23T11:02:59.344Z,38.46
2023-02-23T11:05:33.172Z,38.60
2023-02-23T11:08:12.994Z,38.69
2023-02-23T11:10:42.146Z,38.58
2023-02-23T11:13:23.058Z,38.77
2023-02-23T11:15:59.796Z,38.53
2023-02-23T11:18:29.477Z,38.53
2023-02-23T11:20:57.908Z,38.47
2023-02-23T11:23:29.638Z,38.48
2023-02-23T11:26:01.311Z,38.55
2023-02-23T11:28:33.356Z,38.42
2023-02-23T11:31:05.270Z,38.56
2023-02-23T11:33:37.574Z,38.58
2023-02-23T11:36:18.761Z,38.59
2023-02-23T11:38:48.048Z,38.64
2023-02-23T11:41:23.031Z,38.53
2023-02-23T11:43:52.495Z,38.57
2023-02-23T11:46:22.976Z,38.60
2023-02-23T11:48:57.771Z,38.72
2023-02-23T11:51:28.935Z,38.71
2023-02-23T11:53:57.312Z,38.53
2023-02-23T11:56:27.675Z,38.57
2023-02-23T11:58:58.736Z,38.72
2023-02-23T12:01:39.707Z,38.64
2023-02-23T12:04:10.921Z,38.77
2023-02-23T12:06:41.664Z,38.76
2023-02-23T12:09:19.563Z,38.86
2023-02-23T12:11:53.050Z,38.59
2023-02-23T12:14:31.704Z,38.73
2023-02-23T12:17:05.512Z,38.71
2023-02-23T12:19:40.271Z,38.76
2023-02-23T12:22:13.310Z,38.72
2023-02-23T12:24:46.327Z,38.67
2023-02-23T12:27:17.807Z,38.79
2023-02-23T12:30:08.744Z,38.91
2023-02-23T12:32:47.277Z,38.74
2023-02-23T12:35:22.153Z,38.93
2023-02-23T12:37:57.504Z,38.73
2023-02-23T12:40:29.232Z,39.01
2023-02-23T12:43:04.396Z,38.74
2023-02-23T12:45:39.632Z,38.88
2023-02-23T12:48:16.982Z,38.84
2023-02-23T12:50:53.048Z,38.84
2023-02-23T12:53:26.457Z,38.84
2023-02-23T12:56:13.999Z,38.96
2023-02-23T12:58:48.736Z,38.92
2023-02-23T13:01:24.726Z,38.85
2023-02-23T13:04:10.723Z,39.11
2023-02-23T13:06:51.942Z,39.03
2023-02-23T13:09:31.761Z,38.89
2023-02-23T13:12:15.983Z,39.03
2023-02-23T13:14:51.030Z,38.89
2023-02-23T13:17:33.346Z,39.08
2023-02-23T13:20:05.158Z,38.93
2023-02-23T13:22:42.115Z,38.90
2023-02-23T13:25:24.588Z,39.00
2023-02-23T13:27:56.730Z,38.98
2023-02-23T13:30:24.779Z,39.06
2023-02-23T13:32:53.699Z,39.04
2023-02-23T13:35:22.049Z,38.94
2023-02-23T13:37:54.433Z,38.88
2023-02-23T13:40:32.692Z,39.03
2023-02-23T13:43:17.720Z,38.87
2023-02-23T13:45:54.959Z,39.02
2023-02-23T13:48:50.476Z,39.24
2023-02-23T13:51:33.680Z,39.14
2023-02-23T13:54:07.820Z,39.00
2023-02-23T13:56:44.202Z,39.26
2023-02-23T13:59:19.283Z,39.10
2023-02-23T14:01:50.891Z,38.98
2023-02-23T14:04:24.554Z,39.02
2023-02-23T14:06:56.887Z,39.05
2023-02-23T14:09:31.447Z,39.19
2023-02-23T14:12:16.773Z,39.18
2023-02-23T14:14:46.867Z,39.12
2023-02-23T14:17:57.539Z,39.48
2023-02-23T14:20:43.929Z,39.30
2023-02-23T14:23:35.726Z,39.37
2023-02-23T14:26:18.097Z,39.45
2023-02-23T14:28:50.443Z,39.22
2023-02-23T14:31:22.816Z,39.06
2023-02-23T14:33:53.826Z,39.14
2023-02-23T14:36:39.604Z,39.45
2023-02-23T14:39:11.557Z,38.99
2023-02-23T14:41:50.263Z,39.22
2023-02-23T14:44:29.679Z,39.11
2023-02-23T14:47:03.179Z,39.22
2023-02-23T14:49:36.954Z,39.12
2023-02-23T14:52:10.112Z,39.29
2023-02-23T14:54:40.181Z,39.14
2023-02-23T14:57:18.957Z,39.45
2023-02-23T14:59:53.938Z,39.29
2023-02-23T15:02:24.335Z,39.23
2023-02-23T15:04:53.047Z,39.28
2023-02-23T15:07:25.378Z,39.17
2023-02-23T15:09:55.854Z,39.33
2023-02-23T15:12:28.614Z,39.33
2023-02-23T15:15:00.489Z,39.21
2023-02-23T15:17:32.320Z,39.30
2023-02-23T15:20:15.468Z,39.24
2023-02-23T15:22:48.418Z,39.27
2023-02-23T15:25:19.105Z,39.30
2023-02-23T15:27:49.298Z,39.36
2023-02-23T15:30:23.750Z,39.35
2023-02-23T15:33:01.414Z,39.40
2023-02-23T15:35:30.934Z,39.40
2023-02-23T15:38:14.267Z,39.32
2023-02-23T15:40:54.160Z,39.27
2023-02-23T15:43:24.588Z,39.36
2023-02-23T15:45:55.291Z,39.38
2023-02-23T15:48:26.014Z,39.33
2023-02-23T15:50:57.400Z,39.30
2023-02-23T15:53:30.613Z,39.30
2023-02-23T15:56:04.689Z,39.45
2023-02-23T15:58:47.768Z,39.45
2023-02-23T16:01:25.857Z,39.37
2023-02-23T16:04:01.491Z,39.52
2023-02-23T16:06:34.742Z,39.53
2023-02-23T16:09:20.062Z,39.40
2023-02-23T16:11:51.917Z,39.59
2023-02-23T16:14:23.631Z,39.41
2023-02-23T16:17:10.004Z,39.49
2023-02-23T16:19:41.933Z,39.52
2023-02-23T16:22:21.503Z,39.63
2023-02-23T16:24:57.928Z,39.65
2023-02-23T16:27:28.242Z,39.46
2023-02-23T16:30:06.707Z,39.63
2023-02-23T16:32:37.903Z,39.42
2023-02-23T16:35:17.026Z,39.59
2023-02-23T16:38:02.288Z,39.78
2023-02-23T16:40:30.390Z,39.63
2023-02-23T16:42:59.759Z,39.64
2023-02-23T16:45:29.845Z,39.52
2023-02-23T16:48:02.374Z,39.62
2023-02-23T16:50:31.000Z,39.50
2023-02-23T16:52:59.018Z,39.43
2023-02-23T16:55:29.159Z,39.63
2023-02-23T16:58:00.118Z,39.48
2023-02-23T17:00:31.544Z,39.55
2023-02-23T17:03:00.868Z,39.61
2023-02-23T17:05:30.322Z,39.67
2023-02-23T17:07:59.270Z,39.60
2023-02-23T17:10:29.623Z,39.55
2023-02-23T17:12:59.990Z,39.54
2023-02-23T17:15:32.114Z,39.53
2023-02-23T17:18:00.157Z,39.36
2023-02-23T17:20:29.764Z,39.51
2023-02-23T17:22:59.827Z,39.44
2023-02-23T17:25:28.251Z,39.63
2023-02-23T17:27:57.758Z,39.62
2023-02-23T17:30:26.602Z,39.57
2023-02-23T17:32:58.366Z,39.64
2023-02-23T17:35:26.867Z,39.53
2023-02-23T17:37:55.876Z,39.62
2023-02-23T17:40:29.514Z,39.52
2023-02-23T17:42:59.516Z,39.56
2023-02-23T17:45:28.212Z,39.48
2023-02-23T17:47:58.903Z,39.60
2023-02-23T17:50:28.092Z,39.46
2023-02-23T17:52:56.962Z,39.43
2023-02-23T17:55:25.802Z,39.40
2023-02-23T17:57:54.065Z,39.64
2023-02-23T18:00:22.540Z,39.53
2023-02-23T18:02:50.638Z,39.50
2023-02-23T18:05:20.667Z,39.64
2023-02-23T18:07:49.430Z,39.57
2023-02-23T18:10:17.696Z,39.59
2023-02-23T18:12:46.187Z,39.54
2023-02-23T18:15:14.350Z,39.50
2023-02-23T18:17:42.436Z,39.61
2023-02-23T18:20:15.283Z,39.50
2023-02-23T18:22:45.625Z,39.47
2023-02-23T18:25:22.010Z,39.53
2023-02-23T18:27:54.100Z,39.41
2023-02-23T18:30:23.095Z,39.37
2023-02-23T18:32:52.603Z,39.56
2023-02-23T18:35:20.823Z,39.35
2023-02-23T18:37:50.810Z,39.55
2023-02-23T18:40:24.010Z,39.65
2023-02-23T18:42:52.242Z,39.52
2023-02-23T18:45:20.311Z,39.56
2023-02-23T18:47:48.831Z,39.44
2023-02-23T18:50:19.451Z,39.39
2023-02-23T18:52:50.882Z,39.45
2023-02-23T18:55:22.370Z,39.55
2023-02-23T18:57:50.968Z,39.52
2023-02-23T19:00:20.566Z,39.51
2023-02-23T19:02:49.362Z,39.56
2023-02-23T19:05:21.009Z,39.56
2023-02-23T19:07:50.236Z,39.58
2023-02-23T19:10:18.459Z,39.51
2023-02-23T19:12:47.940Z,39.44
2023-02-23T19:15:16.194Z,39.58
2023-02-23T19:17:46.358Z,39.31
2023-02-23T19:20:14.895Z,39.44
2023-02-23T19:22:43.283Z,39.41
2023-02-23T19:25:15.471Z,39.50
2023-02-23T19:27:43.848Z,39.45
2023-02-23T19:30:14.707Z,39.42
2023-02-23T19:32:44.270Z,39.39
2023-02-23T19:35:15.860Z,39.36
2023-02-23T19:37:51.352Z,39.52
2023-02-23T19:40:23.020Z,39.44
2023-02-23T19:42:53.283Z,39.44
2023-02-23T19:45:24.875Z,39.42
2023-02-23T19:47:53.673Z,39.42
2023-02-23T19:50:22.263Z,39.50
2023-02-23T19:52:50.276Z,39.39
2023-02-23T19:55:20.535Z,39.59
2023-02-23T19:57:48.624Z,39.58
2023-02-23T20:00:17.407Z,39.60
2023-02-23T20:02:52.388Z,39.63
2023-02-23T20:05:20.529Z,39.55
2023-02-23T20:07:49.461Z,39.62
2023-02-23T20:10:17.980Z,39.53
2023-02-23T20:12:46.245Z,39.74
2023-02-23T20:15:15.474Z,39.70
2023-02-23T20:17:43.792Z,39.75
2023-02-23T20:20:14.284Z,39.56
2023-02-23T20:22:43.343Z,39.67
2023-02-23T20:25:16.578Z,39.59
2023-02-23T20:27:45.390Z,39.56
2023-02-23T20:30:15.118Z,39.63
2023-02-23T20:32:43.640Z,39.48
2023-02-23T20:35:15.342Z,39.59
2023-02-23T20:37:43.579Z,39.51
2023-02-23T20:40:18.820Z,39.65
2023-02-23T20:42:48.943Z,39.64
2023-02-23T20:45:18.833Z,39.69
2023-02-23T20:47:47.150Z,39.61
2023-02-23T20:50:16.858Z,39.59
2023-02-23T20:52:46.038Z,39.51
2023-02-23T20:55:19.355Z,39.52
2023-02-23T20:57:48.331Z,39.54
2023-02-23T21:00:22.777Z,39.50
2023-02-23T21:02:55.476Z,39.48
2023-02-23T21:05:27.410Z,39.60
2023-02-23T21:07:59.952Z,39.75
2023-02-23T21:10:30.858Z,39.48
2023-02-23T21:12:58.943Z,39.43
2023-02-23T21:15:27.440Z,39.38
2023-02-23T21:17:55.912Z,39.50
2023-02-23T21:20:27.575Z,39.49
2023-02-23T21:22:56.205Z,39.38
2023-02-23T21:25:27.498Z,39.38
2023-02-23T21:27:56.342Z,39.50
2023-02-23T21:30:28.685Z,39.41
2023-02-23T21:33:00.309Z,39.68
2023-02-23T21:35:29.850Z,39.44
2023-02-23T21:37:58.086Z,39.40
2023-02-23T21:40:26.201Z,39.36
2023-02-23T21:42:54.320Z,39.33
2023-02-23T21:45:22.364Z,39.38
2023-02-23T21:47:50.611Z,39.34
2023-02-23T21:50:20.923Z,39.42
2023-02-23T21:52:54.084Z,39.52
2023-02-23T21:55:22.778Z,39.54
2023-02-23T21:57:50.986Z,39.49
2023-02-23T22:00:20.835Z,39.50
2023-02-23T22:02:49.151Z,39.30
2023-02-23T22:05:17.978Z,39.32
2023-02-23T22:07:50.852Z,39.49
2023-02-23T22:10:19.800Z,39.37
2023-02-23T22:12:48.218Z,39.49
2023-02-23T22:15:17.011Z,39.42
2023-02-23T22:17:45.402Z,39.52
2023-02-23T22:20:14.154Z,39.22
2023-02-23T22:22:42.998Z,39.43
2023-02-23T22:25:12.645Z,39.45
2023-02-23T22:27:43.846Z,39.36
2023-02-23T22:30:14.694Z,39.36
2023-02-23T22:32:44.008Z,39.25
2023-02-23T22:35:12.330Z,39.31
2023-02-23T22:37:40.447Z,39.36
2023-02-23T22:40:15.343Z,39.32
2023-02-23T22:42:48.317Z,39.32
2023-02-23T22:45:17.387Z,39.38
2023-02-23T22:47:45.525Z,39.37
2023-02-23T22:50:17.992Z,39.27
2023-02-23T22:52:46.676Z,39.33
2023-02-23T22:55:16.244Z,39.34
2023-02-23T22:57:44.260Z,39.32
2023-02-23T23:00:15.761Z,39.38
2023-02-23T23:02:43.812Z,39.38
2023-02-23T23:05:13.454Z,39.37
2023-02-23T23:07:41.744Z,39.31
2023-02-23T23:10:12.166Z,39.19
2023-02-23T23:12:41.654Z,39.21
2023-02-23T23:15:14.982Z,39.19
2023-02-23T23:17:48.248Z,39.24
2023-02-23T23:20:22.847Z,39.26
2023-02-23T23:22:51.020Z,39.15
2023-02-23T23:25:23.346Z,39.38
2023-02-23T23:27:55.866Z,39.29
2023-02-23T23:30:26.237Z,39.18
2023-02-23T23:32:54.589Z,39.24
2023-02-23T23:35:23.144Z,39.24
2023-02-23T23:37:51.782Z,39.30
2023-02-23T23:40:24.440Z,39.22
2023-02-23T23:42:55.478Z,39.13
2023-02-23T23:45:25.232Z,39.23
2023-02-23T23:47:53.459Z,39.31
2023-02-23T23:50:26.797Z,39.35
2023-02-23T23:52:55.540Z,39.20
2023-02-23T23:55:23.597Z,39.23
2023-02-23T23:57:53.360Z,39.16
